sensor_id;sensor_type;location;lat;lon;timestamp;temperature;humidity
3416;DHT22;1721;51.238;9.562;2024-03-23T00:56:12;11.70;90.70
3416;DHT22;1721;51.238;9.562;2024-03-23T00:58:38;11.60;91.10
3416;DHT22;1721;51.238;9.562;2024-03-23T01:01:04;11.50;91.10
3416;DHT22;1721;51.238;9.562;2024-03-23T01:03:30;11.50;91.30
3416;DHT22;1721;51.238;9.562;2024-03-23T01:05:59;11.60;91.30
3416;DHT22;1721;51.238;9.562;2024-03-23T01:08:25;11.60;91.30
3416;DHT22;1721;51.238;9.562;2024-03-23T01:10:55;11.60;91.00
3416;DHT22;1721;51.238;9.562;2024-03-23T01:13:21;11.60;90.90
3416;DHT22;1721;51.238;9.562;2024-03-23T01:15:51;11.50;91.00
3416;DHT22;1721;51.238;9.562;2024-03-23T01:18:17;11.50;91.40
3416;DHT22;1721;51.238;9.562;2024-03-23T01:20:43;11.50;91.30
3416;DHT22;1721;51.238;9.562;2024-03-23T01:23:09;11.50;91.40
3416;DHT22;1721;51.238;9.562;2024-03-23T01:25:34;11.50;91.10
3416;DHT22;1721;51.238;9.562;2024-03-23T01:28:00;11.50;91.20
3416;DHT22;1721;51.238;9.562;2024-03-23T01:30:25;11.50;91.40
3416;DHT22;1721;51.238;9.562;2024-03-23T01:32:51;11.50;91.20
3416;DHT22;1721;51.238;9.562;2024-03-23T01:35:16;11.50;90.90
3416;DHT22;1721;51.238;9.562;2024-03-23T01:37:42;11.60;90.90
3416;DHT22;1721;51.238;9.562;2024-03-23T01:40:08;11.60;90.70
3416;DHT22;1721;51.238;9.562;2024-03-23T01:42:33;11.60;90.50
3416;DHT22;1721;51.238;9.562;2024-03-23T01:44:59;11.50;90.90
3416;DHT22;1721;51.238;9.562;2024-03-23T01:47:24;11.40;90.80
3416;DHT22;1721;51.238;9.562;2024-03-23T01:49:50;11.40;90.80
3416;DHT22;1721;51.238;9.562;2024-03-23T01:52:17;11.30;91.00
3416;DHT22;1721;51.238;9.562;2024-03-23T01:54:42;11.40;90.80
3416;DHT22;1721;51.238;9.562;2024-03-23T01:57:08;11.20;90.90
3416;DHT22;1721;51.238;9.562;2024-03-23T01:59:34;11.20;90.90
3416;DHT22;1721;51.238;9.562;2024-03-23T02:02:01;11.20;90.80
3416;DHT22;1721;51.238;9.562;2024-03-23T02:04:28;11.00;90.90
3416;DHT22;1721;51.238;9.562;2024-03-23T02:06:53;10.90;91.00
3416;DHT22;1721;51.238;9.562;2024-03-23T02:09:19;10.70;91.10
3416;DHT22;1721;51.238;9.562;2024-03-23T02:11:44;10.70;91.20
3416;DHT22;1721;51.238;9.562;2024-03-23T02:14:10;10.70;91.30
3416;DHT22;1721;51.238;9.562;2024-03-23T02:16:35;10.70;91.20
3416;DHT22;1721;51.238;9.562;2024-03-23T02:19:01;10.60;91.30
3416;DHT22;1721;51.238;9.562;2024-03-23T02:21:26;10.50;91.10
3416;DHT22;1721;51.238;9.562;2024-03-23T02:23:53;10.50;91.00
3416;DHT22;1721;51.238;9.562;2024-03-23T02:26:18;10.40;91.20
3416;DHT22;1721;51.238;9.562;2024-03-23T02:28:44;10.30;91.30
3416;DHT22;1721;51.238;9.562;2024-03-23T02:31:09;10.20;91.30
3416;DHT22;1721;51.238;9.562;2024-03-23T02:33:35;10.20;91.10
3416;DHT22;1721;51.238;9.562;2024-03-23T02:36:03;10.20;91.50
3416;DHT22;1721;51.238;9.562;2024-03-23T02:38:29;10.20;91.80
3416;DHT22;1721;51.238;9.562;2024-03-23T02:40:54;10.20;91.90
3416;DHT22;1721;51.238;9.562;2024-03-23T02:43:20;10.20;91.90
3416;DHT22;1721;51.238;9.562;2024-03-23T02:45:46;10.30;92.10
3416;DHT22;1721;51.238;9.562;2024-03-23T02:48:11;10.10;92.10
3416;DHT22;1721;51.238;9.562;2024-03-23T02:50:37;9.90;93.30
3416;DHT22;1721;51.238;9.562;2024-03-23T02:53:02;9.90;93.30
3416;DHT22;1721;51.238;9.562;2024-03-23T02:55:28;9.80;93.20
3416;DHT22;1721;51.238;9.562;2024-03-23T02:57:54;9.60;93.90
3416;DHT22;1721;51.238;9.562;2024-03-23T03:00:19;9.50;94.30
3416;DHT22;1721;51.238;9.562;2024-03-23T03:02:45;9.60;94.10
3416;DHT22;1721;51.238;9.562;2024-03-23T03:05:10;9.50;94.00
3416;DHT22;1721;51.238;9.562;2024-03-23T03:07:37;9.60;94.30
3416;DHT22;1721;51.238;9.562;2024-03-23T03:10:04;9.40;94.10
3416;DHT22;1721;51.238;9.562;2024-03-23T03:12:31;9.30;94.40
3416;DHT22;1721;51.238;9.562;2024-03-23T03:14:57;9.20;94.50
3416;DHT22;1721;51.238;9.562;2024-03-23T03:17:23;9.10;94.70
3416;DHT22;1721;51.238;9.562;2024-03-23T03:19:48;9.00;95.00
3416;DHT22;1721;51.238;9.562;2024-03-23T03:22:14;8.90;95.20
3416;DHT22;1721;51.238;9.562;2024-03-23T03:24:39;8.90;95.20
3416;DHT22;1721;51.238;9.562;2024-03-23T03:27:05;8.80;95.00
3416;DHT22;1721;51.238;9.562;2024-03-23T03:29:32;8.80;95.10
3416;DHT22;1721;51.238;9.562;2024-03-23T03:32:01;8.80;95.20
3416;DHT22;1721;51.238;9.562;2024-03-23T03:34:27;8.80;95.00
3416;DHT22;1721;51.238;9.562;2024-03-23T03:36:53;8.80;94.80
3416;DHT22;1721;51.238;9.562;2024-03-23T03:39:18;8.70;94.60
3416;DHT22;1721;51.238;9.562;2024-03-23T03:41:44;8.70;94.60
3416;DHT22;1721;51.238;9.562;2024-03-23T03:44:09;8.50;94.00
3416;DHT22;1721;51.238;9.562;2024-03-23T03:46:35;8.30;94.30
3416;DHT22;1721;51.238;9.562;2024-03-23T03:49:00;8.10;94.60
3416;DHT22;1721;51.238;9.562;2024-03-23T03:51:26;7.90;94.50
3416;DHT22;1721;51.238;9.562;2024-03-23T03:53:51;7.80;94.90
3416;DHT22;1721;51.238;9.562;2024-03-23T03:56:17;7.80;94.90
3416;DHT22;1721;51.238;9.562;2024-03-23T03:58:42;7.80;95.50
3416;DHT22;1721;51.238;9.562;2024-03-23T04:01:08;7.80;95.10
3416;DHT22;1721;51.238;9.562;2024-03-23T04:03:34;7.90;95.00
3416;DHT22;1721;51.238;9.562;2024-03-23T04:05:59;7.80;94.80
3416;DHT22;1721;51.238;9.562;2024-03-23T04:08:25;7.70;94.90
3416;DHT22;1721;51.238;9.562;2024-03-23T04:10:51;7.70;95.00
3416;DHT22;1721;51.238;9.562;2024-03-23T04:13:16;7.70;95.00
3416;DHT22;1721;51.238;9.562;2024-03-23T04:15:42;7.80;95.30
3416;DHT22;1721;51.238;9.562;2024-03-23T04:18:07;7.80;94.80
3416;DHT22;1721;51.238;9.562;2024-03-23T04:20:33;7.70;94.70
3416;DHT22;1721;51.238;9.562;2024-03-23T04:22:59;7.70;94.70
3416;DHT22;1721;51.238;9.562;2024-03-23T04:25:25;7.50;94.90
3416;DHT22;1721;51.238;9.562;2024-03-23T04:27:50;7.60;95.20
3416;DHT22;1721;51.238;9.562;2024-03-23T04:30:16;7.50;94.90
3416;DHT22;1721;51.238;9.562;2024-03-23T04:32:43;7.50;95.20
3416;DHT22;1721;51.238;9.562;2024-03-23T04:35:09;7.40;95.20
3416;DHT22;1721;51.238;9.562;2024-03-23T04:37:38;7.40;95.20
3416;DHT22;1721;51.238;9.562;2024-03-23T04:40:07;7.30;95.30
3416;DHT22;1721;51.238;9.562;2024-03-23T04:42:33;7.30;95.60
3416;DHT22;1721;51.238;9.562;2024-03-23T04:44:59;7.40;95.70
3416;DHT22;1721;51.238;9.562;2024-03-23T04:47:24;7.40;95.50
3416;DHT22;1721;51.238;9.562;2024-03-23T04:49:50;7.30;95.50
3416;DHT22;1721;51.238;9.562;2024-03-23T04:52:19;7.20;95.70
3416;DHT22;1721;51.238;9.562;2024-03-23T04:54:44;7.20;95.50
3416;DHT22;1721;51.238;9.562;2024-03-23T04:57:11;6.90;94.80
3416;DHT22;1721;51.238;9.562;2024-03-23T04:59:36;6.90;95.10
3416;DHT22;1721;51.238;9.562;2024-03-23T05:02:02;6.70;94.90
3416;DHT22;1721;51.238;9.562;2024-03-23T05:04:28;6.70;94.90
3416;DHT22;1721;51.238;9.562;2024-03-23T05:06:53;6.80;95.10
3416;DHT22;1721;51.238;9.562;2024-03-23T05:09:19;6.70;95.00
3416;DHT22;1721;51.238;9.562;2024-03-23T05:11:45;6.70;94.70
3416;DHT22;1721;51.238;9.562;2024-03-23T05:14:13;6.70;94.90
3416;DHT22;1721;51.238;9.562;2024-03-23T05:16:38;6.70;95.20
3416;DHT22;1721;51.238;9.562;2024-03-23T05:19:04;6.70;94.80
3416;DHT22;1721;51.238;9.562;2024-03-23T05:21:29;6.70;94.90
3416;DHT22;1721;51.238;9.562;2024-03-23T05:23:55;6.60;94.90
3416;DHT22;1721;51.238;9.562;2024-03-23T05:26:22;6.60;95.10
3416;DHT22;1721;51.238;9.562;2024-03-23T05:28:47;6.70;95.10
3416;DHT22;1721;51.238;9.562;2024-03-23T05:31:25;6.70;94.80
3416;DHT22;1721;51.238;9.562;2024-03-23T05:33:51;6.60;94.60
3416;DHT22;1721;51.238;9.562;2024-03-23T05:36:17;6.60;94.40
3416;DHT22;1721;51.238;9.562;2024-03-23T05:38:43;6.50;94.30
3416;DHT22;1721;51.238;9.562;2024-03-23T05:41:08;6.40;94.20
3416;DHT22;1721;51.238;9.562;2024-03-23T05:43:34;6.40;94.30
3416;DHT22;1721;51.238;9.562;2024-03-23T05:46:00;6.40;94.50
3416;DHT22;1721;51.238;9.562;2024-03-23T05:48:30;6.30;94.30
3416;DHT22;1721;51.238;9.562;2024-03-23T05:50:56;6.20;94.40
3416;DHT22;1721;51.238;9.562;2024-03-23T05:53:23;6.20;94.60
3416;DHT22;1721;51.238;9.562;2024-03-23T05:55:49;6.30;94.90
3416;DHT22;1721;51.238;9.562;2024-03-23T05:58:16;6.10;94.90
3416;DHT22;1721;51.238;9.562;2024-03-23T06:00:42;6.20;95.10
3416;DHT22;1721;51.238;9.562;2024-03-23T06:03:08;6.30;95.40
3416;DHT22;1721;51.238;9.562;2024-03-23T06:05:34;6.30;94.90
3416;DHT22;1721;51.238;9.562;2024-03-23T06:08:00;6.20;94.70
3416;DHT22;1721;51.238;9.562;2024-03-23T06:10:25;6.10;95.00
3416;DHT22;1721;51.238;9.562;2024-03-23T06:12:51;6.20;95.30
3416;DHT22;1721;51.238;9.562;2024-03-23T06:15:18;6.30;95.20
3416;DHT22;1721;51.238;9.562;2024-03-23T06:17:44;6.30;95.10
3416;DHT22;1721;51.238;9.562;2024-03-23T06:20:10;6.20;94.90
3416;DHT22;1721;51.238;9.562;2024-03-23T06:22:36;6.20;94.70
3416;DHT22;1721;51.238;9.562;2024-03-23T06:25:02;6.20;94.60
3416;DHT22;1721;51.238;9.562;2024-03-23T06:27:28;6.20;94.80
3416;DHT22;1721;51.238;9.562;2024-03-23T06:29:53;6.30;94.60
3416;DHT22;1721;51.238;9.562;2024-03-23T06:32:20;6.20;94.40
3416;DHT22;1721;51.238;9.562;2024-03-23T06:34:45;6.10;94.60
3416;DHT22;1721;51.238;9.562;2024-03-23T06:37:11;6.20;94.60
3416;DHT22;1721;51.238;9.562;2024-03-23T06:39:37;6.40;94.80
3416;DHT22;1721;51.238;9.562;2024-03-23T06:42:03;6.60;94.70
3416;DHT22;1721;51.238;9.562;2024-03-23T06:44:29;6.80;94.70
3416;DHT22;1721;51.238;9.562;2024-03-23T06:46:55;6.90;94.50
3416;DHT22;1721;51.238;9.562;2024-03-23T06:49:22;7.00;94.40
3416;DHT22;1721;51.238;9.562;2024-03-23T06:51:47;7.00;94.10
3416;DHT22;1721;51.238;9.562;2024-03-23T06:54:13;7.10;93.90
3416;DHT22;1721;51.238;9.562;2024-03-23T06:56:38;7.10;93.60
3416;DHT22;1721;51.238;9.562;2024-03-23T06:59:04;7.10;93.70
3416;DHT22;1721;51.238;9.562;2024-03-23T07:01:30;7.20;93.80
3416;DHT22;1721;51.238;9.562;2024-03-23T07:03:55;7.20;93.20
3416;DHT22;1721;51.238;9.562;2024-03-23T07:06:21;7.10;93.70
3416;DHT22;1721;51.238;9.562;2024-03-23T07:08:47;7.20;93.70
3416;DHT22;1721;51.238;9.562;2024-03-23T07:11:18;7.30;93.60
3416;DHT22;1721;51.238;9.562;2024-03-23T07:13:43;7.30;93.40
3416;DHT22;1721;51.238;9.562;2024-03-23T07:16:09;7.30;93.40
3416;DHT22;1721;51.238;9.562;2024-03-23T07:18:35;7.40;93.00
3416;DHT22;1721;51.238;9.562;2024-03-23T07:21:00;7.30;92.70
3416;DHT22;1721;51.238;9.562;2024-03-23T07:23:26;7.30;92.80
3416;DHT22;1721;51.238;9.562;2024-03-23T07:25:58;7.50;93.00
3416;DHT22;1721;51.238;9.562;2024-03-23T07:28:24;7.40;92.60
3416;DHT22;1721;51.238;9.562;2024-03-23T07:31:07;7.50;92.50
3416;DHT22;1721;51.238;9.562;2024-03-23T07:33:37;7.60;92.30
3416;DHT22;1721;51.238;9.562;2024-03-23T07:36:04;7.50;91.90
3416;DHT22;1721;51.238;9.562;2024-03-23T07:38:30;7.60;92.20
3416;DHT22;1721;51.238;9.562;2024-03-23T07:41:22;7.70;92.10
3416;DHT22;1721;51.238;9.562;2024-03-23T07:43:48;7.70;92.10
3416;DHT22;1721;51.238;9.562;2024-03-23T07:46:15;7.70;92.50
3416;DHT22;1721;51.238;9.562;2024-03-23T07:48:41;7.60;92.10
3416;DHT22;1721;51.238;9.562;2024-03-23T07:51:16;7.50;91.80
3416;DHT22;1721;51.238;9.562;2024-03-23T07:53:43;7.60;92.10
3416;DHT22;1721;51.238;9.562;2024-03-23T07:56:10;7.70;91.70
3416;DHT22;1721;51.238;9.562;2024-03-23T07:58:36;7.70;91.30
3416;DHT22;1721;51.238;9.562;2024-03-23T08:01:07;7.70;91.80
3416;DHT22;1721;51.238;9.562;2024-03-23T08:03:34;7.90;91.90
3416;DHT22;1721;51.238;9.562;2024-03-23T08:06:13;8.10;92.10
3416;DHT22;1721;51.238;9.562;2024-03-23T08:08:39;8.20;91.30
3416;DHT22;1721;51.238;9.562;2024-03-23T08:11:06;8.20;91.20
3416;DHT22;1721;51.238;9.562;2024-03-23T08:13:32;8.40;91.60
3416;DHT22;1721;51.238;9.562;2024-03-23T08:15:58;8.60;91.80
3416;DHT22;1721;51.238;9.562;2024-03-23T08:18:24;8.70;91.60
3416;DHT22;1721;51.238;9.562;2024-03-23T08:21:04;8.90;91.60
3416;DHT22;1721;51.238;9.562;2024-03-23T08:23:34;9.00;91.60
3416;DHT22;1721;51.238;9.562;2024-03-23T08:26:11;9.20;91.50
3416;DHT22;1721;51.238;9.562;2024-03-23T08:28:37;9.20;90.60
3416;DHT22;1721;51.238;9.562;2024-03-23T08:31:11;9.20;91.10
3416;DHT22;1721;51.238;9.562;2024-03-23T08:33:37;9.20;91.30
3416;DHT22;1721;51.238;9.562;2024-03-23T08:36:07;9.30;91.50
3416;DHT22;1721;51.238;9.562;2024-03-23T08:38:33;9.50;91.50
3416;DHT22;1721;51.238;9.562;2024-03-23T08:41:09;9.70;91.30
3416;DHT22;1721;51.238;9.562;2024-03-23T08:43:40;9.70;90.80
3416;DHT22;1721;51.238;9.562;2024-03-23T08:46:13;9.70;90.50
3416;DHT22;1721;51.238;9.562;2024-03-23T08:48:43;9.50;90.80
3416;DHT22;1721;51.238;9.562;2024-03-23T08:51:10;9.70;90.60
3416;DHT22;1721;51.238;9.562;2024-03-23T08:53:37;9.50;90.10
3416;DHT22;1721;51.238;9.562;2024-03-23T08:56:04;9.20;90.50
3416;DHT22;1721;51.238;9.562;2024-03-23T08:58:31;9.10;91.00
3416;DHT22;1721;51.238;9.562;2024-03-23T09:01:02;9.10;91.10
3416;DHT22;1721;51.238;9.562;2024-03-23T09:03:28;8.80;90.80
3416;DHT22;1721;51.238;9.562;2024-03-23T09:05:54;8.70;91.60
3416;DHT22;1721;51.238;9.562;2024-03-23T09:08:21;8.70;91.30
3416;DHT22;1721;51.238;9.562;2024-03-23T09:10:47;8.90;91.30
3416;DHT22;1721;51.238;9.562;2024-03-23T09:13:13;8.90;91.30
3416;DHT22;1721;51.238;9.562;2024-03-23T09:15:46;9.10;91.20
3416;DHT22;1721;51.238;9.562;2024-03-23T09:18:12;9.20;91.30
3416;DHT22;1721;51.238;9.562;2024-03-23T09:20:38;9.40;91.20
3416;DHT22;1721;51.238;9.562;2024-03-23T09:23:03;9.50;90.90
3416;DHT22;1721;51.238;9.562;2024-03-23T09:25:29;9.60;91.10
3416;DHT22;1721;51.238;9.562;2024-03-23T09:27:55;9.90;90.90
3416;DHT22;1721;51.238;9.562;2024-03-23T09:30:20;9.80;91.10
3416;DHT22;1721;51.238;9.562;2024-03-23T09:32:46;10.00;90.70
3416;DHT22;1721;51.238;9.562;2024-03-23T09:35:12;10.10;90.20
3416;DHT22;1721;51.238;9.562;2024-03-23T09:37:38;10.10;90.20
3416;DHT22;1721;51.238;9.562;2024-03-23T09:40:10;10.10;90.00
3416;DHT22;1721;51.238;9.562;2024-03-23T09:42:36;10.10;90.10
3416;DHT22;1721;51.238;9.562;2024-03-23T09:45:04;10.30;90.30
3416;DHT22;1721;51.238;9.562;2024-03-23T09:47:31;10.30;90.20
3416;DHT22;1721;51.238;9.562;2024-03-23T09:49:57;10.30;90.00
3416;DHT22;1721;51.238;9.562;2024-03-23T09:52:23;9.90;90.30
3416;DHT22;1721;51.238;9.562;2024-03-23T09:54:49;9.90;91.10
3416;DHT22;1721;51.238;9.562;2024-03-23T09:57:14;10.10;91.20
3416;DHT22;1721;51.238;9.562;2024-03-23T09:59:40;10.30;91.40
3416;DHT22;1721;51.238;9.562;2024-03-23T10:02:06;10.50;91.10
3416;DHT22;1721;51.238;9.562;2024-03-23T10:04:39;10.70;90.70
3416;DHT22;1721;51.238;9.562;2024-03-23T10:07:15;10.80;90.30
3416;DHT22;1721;51.238;9.562;2024-03-23T10:09:44;10.80;89.60
3416;DHT22;1721;51.238;9.562;2024-03-23T10:12:10;10.80;89.00
3416;DHT22;1721;51.238;9.562;2024-03-23T10:14:37;10.90;89.60
3416;DHT22;1721;51.238;9.562;2024-03-23T10:17:14;11.20;90.80
3416;DHT22;1721;51.238;9.562;2024-03-23T10:19:44;11.30;90.50
3416;DHT22;1721;51.238;9.562;2024-03-23T10:22:12;11.40;90.50
3416;DHT22;1721;51.238;9.562;2024-03-23T10:24:38;11.30;90.40
3416;DHT22;1721;51.238;9.562;2024-03-23T10:27:03;11.20;89.20
3416;DHT22;1721;51.238;9.562;2024-03-23T10:29:29;11.20;89.40
3416;DHT22;1721;51.238;9.562;2024-03-23T10:32:07;11.40;89.70
3416;DHT22;1721;51.238;9.562;2024-03-23T10:34:33;11.40;90.20
3416;DHT22;1721;51.238;9.562;2024-03-23T10:37:00;11.40;90.00
3416;DHT22;1721;51.238;9.562;2024-03-23T10:39:27;11.50;89.90
3416;DHT22;1721;51.238;9.562;2024-03-23T10:41:53;11.50;88.30
3416;DHT22;1721;51.238;9.562;2024-03-23T10:44:22;11.30;88.70
3416;DHT22;1721;51.238;9.562;2024-03-23T10:46:50;11.30;88.50
3416;DHT22;1721;51.238;9.562;2024-03-23T10:49:16;11.20;89.00
3416;DHT22;1721;51.238;9.562;2024-03-23T10:51:41;11.20;88.90
3416;DHT22;1721;51.238;9.562;2024-03-23T10:54:07;11.10;87.60
3416;DHT22;1721;51.238;9.562;2024-03-23T10:56:39;11.00;89.10
3416;DHT22;1721;51.238;9.562;2024-03-23T10:59:06;10.90;88.30
3416;DHT22;1721;51.238;9.562;2024-03-23T11:01:33;11.00;86.90
3416;DHT22;1721;51.238;9.562;2024-03-23T11:03:59;11.30;88.50
3416;DHT22;1721;51.238;9.562;2024-03-23T11:09:00;11.30;86.20
3416;DHT22;1721;51.238;9.562;2024-03-23T11:11:26;11.40;84.70
3416;DHT22;1721;51.238;9.562;2024-03-23T11:13:53;11.10;82.50
3416;DHT22;1721;51.238;9.562;2024-03-23T11:16:28;11.20;82.90
3416;DHT22;1721;51.238;9.562;2024-03-23T11:19:35;11.10;84.90
3416;DHT22;1721;51.238;9.562;2024-03-23T11:22:02;11.10;83.80
3416;DHT22;1721;51.238;9.562;2024-03-23T11:24:28;11.10;82.80
3416;DHT22;1721;51.238;9.562;2024-03-23T11:26:54;11.10;83.30
3416;DHT22;1721;51.238;9.562;2024-03-23T11:29:20;10.70;83.00
3416;DHT22;1721;51.238;9.562;2024-03-23T11:31:50;10.10;81.60
3416;DHT22;1721;51.238;9.562;2024-03-23T11:34:16;9.80;85.40
3416;DHT22;1721;51.238;9.562;2024-03-23T11:36:43;9.20;83.30
3416;DHT22;1721;51.238;9.562;2024-03-23T11:39:19;8.90;85.00
3416;DHT22;1721;51.238;9.562;2024-03-23T11:41:56;9.10;86.40
3416;DHT22;1721;51.238;9.562;2024-03-23T11:44:24;9.40;87.40
3416;DHT22;1721;51.238;9.562;2024-03-23T11:46:50;9.50;86.30
3416;DHT22;1721;51.238;9.562;2024-03-23T11:49:28;9.70;86.00
3416;DHT22;1721;51.238;9.562;2024-03-23T11:51:55;9.90;86.30
3416;DHT22;1721;51.238;9.562;2024-03-23T11:54:25;10.00;84.20
3416;DHT22;1721;51.238;9.562;2024-03-23T11:56:57;10.10;87.00
3416;DHT22;1721;51.238;9.562;2024-03-23T12:01:57;10.40;86.50
3416;DHT22;1721;51.238;9.562;2024-03-23T12:04:30;10.50;85.00
3416;DHT22;1721;51.238;9.562;2024-03-23T12:09:41;11.10;83.30
3416;DHT22;1721;51.238;9.562;2024-03-23T12:12:17;11.10;82.20
3416;DHT22;1721;51.238;9.562;2024-03-23T12:15:10;10.30;79.80
3416;DHT22;1721;51.238;9.562;2024-03-23T12:17:36;9.50;85.30
3416;DHT22;1721;51.238;9.562;2024-03-23T12:20:02;8.90;86.50
3416;DHT22;1721;51.238;9.562;2024-03-23T12:22:28;8.40;88.30
3416;DHT22;1721;51.238;9.562;2024-03-23T12:24:54;8.00;90.00
3416;DHT22;1721;51.238;9.562;2024-03-23T12:27:20;7.80;89.00
3416;DHT22;1721;51.238;9.562;2024-03-23T12:29:46;7.70;90.60
3416;DHT22;1721;51.238;9.562;2024-03-23T12:32:12;7.90;90.80
3416;DHT22;1721;51.238;9.562;2024-03-23T12:34:38;8.30;90.80
3416;DHT22;1721;51.238;9.562;2024-03-23T12:37:04;8.80;90.70
3416;DHT22;1721;51.238;9.562;2024-03-23T12:39:31;9.40;89.90
3416;DHT22;1721;51.238;9.562;2024-03-23T12:41:56;9.80;87.50
3416;DHT22;1721;51.238;9.562;2024-03-23T12:44:22;10.10;86.40
3416;DHT22;1721;51.238;9.562;2024-03-23T12:46:48;10.30;85.00
3416;DHT22;1721;51.238;9.562;2024-03-23T12:49:13;10.40;84.60
3416;DHT22;1721;51.238;9.562;2024-03-23T12:51:39;10.30;84.60
3416;DHT22;1721;51.238;9.562;2024-03-23T12:54:05;10.40;84.70
3416;DHT22;1721;51.238;9.562;2024-03-23T12:56:31;10.20;82.20
3416;DHT22;1721;51.238;9.562;2024-03-23T12:58:57;10.00;81.20
3416;DHT22;1721;51.238;9.562;2024-03-23T13:01:26;10.00;84.00
3416;DHT22;1721;51.238;9.562;2024-03-23T13:03:51;10.00;84.30
3416;DHT22;1721;51.238;9.562;2024-03-23T13:06:18;9.80;85.70
3416;DHT22;1721;51.238;9.562;2024-03-23T13:08:46;9.90;86.70
3416;DHT22;1721;51.238;9.562;2024-03-23T13:11:12;9.90;85.10
3416;DHT22;1721;51.238;9.562;2024-03-23T13:13:39;10.00;84.70
3416;DHT22;1721;51.238;9.562;2024-03-23T13:16:05;10.00;83.90
3416;DHT22;1721;51.238;9.562;2024-03-23T13:18:31;10.20;84.60
3416;DHT22;1721;51.238;9.562;2024-03-23T13:21:00;10.30;83.30
3416;DHT22;1721;51.238;9.562;2024-03-23T13:23:26;10.40;82.00
3416;DHT22;1721;51.238;9.562;2024-03-23T13:25:52;10.50;81.70
3416;DHT22;1721;51.238;9.562;2024-03-23T13:28:22;10.50;81.10
3416;DHT22;1721;51.238;9.562;2024-03-23T13:30:55;10.70;81.60
3416;DHT22;1721;51.238;9.562;2024-03-23T13:33:21;10.60;81.30
3416;DHT22;1721;51.238;9.562;2024-03-23T13:35:50;10.50;83.20
3416;DHT22;1721;51.238;9.562;2024-03-23T13:38:16;10.40;83.00
3416;DHT22;1721;51.238;9.562;2024-03-23T13:43:21;10.20;82.90
3416;DHT22;1721;51.238;9.562;2024-03-23T13:45:53;10.00;83.70
3416;DHT22;1721;51.238;9.562;2024-03-23T13:48:20;9.80;84.60
3416;DHT22;1721;51.238;9.562;2024-03-23T13:50:46;9.70;86.00
3416;DHT22;1721;51.238;9.562;2024-03-23T13:53:14;9.60;86.70
3416;DHT22;1721;51.238;9.562;2024-03-23T13:55:47;9.50;87.00
3416;DHT22;1721;51.238;9.562;2024-03-23T13:58:14;9.30;86.80
3416;DHT22;1721;51.238;9.562;2024-03-23T14:00:40;9.40;86.90
3416;DHT22;1721;51.238;9.562;2024-03-23T14:03:05;9.10;87.40
3416;DHT22;1721;51.238;9.562;2024-03-23T14:05:31;8.90;86.90
3416;DHT22;1721;51.238;9.562;2024-03-23T14:07:56;8.90;88.00
3416;DHT22;1721;51.238;9.562;2024-03-23T14:10:22;9.10;87.90
3416;DHT22;1721;51.238;9.562;2024-03-23T14:12:48;9.30;88.90
3416;DHT22;1721;51.238;9.562;2024-03-23T14:15:13;9.50;88.80
3416;DHT22;1721;51.238;9.562;2024-03-23T14:17:39;9.70;89.10
3416;DHT22;1721;51.238;9.562;2024-03-23T14:20:05;9.70;88.40
3416;DHT22;1721;51.238;9.562;2024-03-23T14:22:31;9.50;89.50
3416;DHT22;1721;51.238;9.562;2024-03-23T14:24:57;9.50;89.00
3416;DHT22;1721;51.238;9.562;2024-03-23T14:27:24;9.40;88.40
3416;DHT22;1721;51.238;9.562;2024-03-23T14:29:49;9.40;88.70
3416;DHT22;1721;51.238;9.562;2024-03-23T14:32:15;9.60;87.80
3416;DHT22;1721;51.238;9.562;2024-03-23T14:34:41;9.70;85.40
3416;DHT22;1721;51.238;9.562;2024-03-23T14:37:07;9.70;85.50
3416;DHT22;1721;51.238;9.562;2024-03-23T14:39:33;9.70;81.90
3416;DHT22;1721;51.238;9.562;2024-03-23T14:42:04;9.80;84.50
3416;DHT22;1721;51.238;9.562;2024-03-23T14:44:31;9.80;80.70
3416;DHT22;1721;51.238;9.562;2024-03-23T14:46:57;9.70;82.30
3416;DHT22;1721;51.238;9.562;2024-03-23T14:49:22;9.70;81.70
3416;DHT22;1721;51.238;9.562;2024-03-23T14:51:49;9.50;81.80
3416;DHT22;1721;51.238;9.562;2024-03-23T14:54:15;9.40;82.30
3416;DHT22;1721;51.238;9.562;2024-03-23T14:56:40;9.60;83.20
3416;DHT22;1721;51.238;9.562;2024-03-23T14:59:06;9.70;82.20
3416;DHT22;1721;51.238;9.562;2024-03-23T15:01:32;10.10;80.90
3416;DHT22;1721;51.238;9.562;2024-03-23T15:03:58;10.20;78.50
3416;DHT22;1721;51.238;9.562;2024-03-23T15:06:23;10.40;77.50
3416;DHT22;1721;51.238;9.562;2024-03-23T15:08:49;10.40;75.80
3416;DHT22;1721;51.238;9.562;2024-03-23T15:11:15;10.20;74.90
3416;DHT22;1721;51.238;9.562;2024-03-23T15:13:43;10.30;75.10
3416;DHT22;1721;51.238;9.562;2024-03-23T15:16:09;10.20;75.40
3416;DHT22;1721;51.238;9.562;2024-03-23T15:18:35;10.10;74.90
3416;DHT22;1721;51.238;9.562;2024-03-23T15:21:02;10.10;76.60
3416;DHT22;1721;51.238;9.562;2024-03-23T15:23:34;10.10;77.50
3416;DHT22;1721;51.238;9.562;2024-03-23T15:26:02;10.30;78.30
3416;DHT22;1721;51.238;9.562;2024-03-23T15:28:28;10.40;77.10
3416;DHT22;1721;51.238;9.562;2024-03-23T15:31:08;10.40;76.20
3416;DHT22;1721;51.238;9.562;2024-03-23T15:33:34;10.30;74.90
3416;DHT22;1721;51.238;9.562;2024-03-23T15:36:01;10.10;74.00
3416;DHT22;1721;51.238;9.562;2024-03-23T15:38:27;10.10;74.30
3416;DHT22;1721;51.238;9.562;2024-03-23T15:40:54;10.10;75.00
3416;DHT22;1721;51.238;9.562;2024-03-23T15:43:20;9.90;75.40
3416;DHT22;1721;51.238;9.562;2024-03-23T15:48:21;9.60;75.20
3416;DHT22;1721;51.238;9.562;2024-03-23T15:51:01;9.50;75.40
3416;DHT22;1721;51.238;9.562;2024-03-23T15:53:27;9.50;75.70
3416;DHT22;1721;51.238;9.562;2024-03-23T15:55:59;9.60;75.30
3416;DHT22;1721;51.238;9.562;2024-03-23T15:58:25;9.60;75.30
3416;DHT22;1721;51.238;9.562;2024-03-23T16:00:55;9.60;75.70
3416;DHT22;1721;51.238;9.562;2024-03-23T16:03:20;9.60;76.20
3416;DHT22;1721;51.238;9.562;2024-03-23T16:05:53;9.50;74.90
3416;DHT22;1721;51.238;9.562;2024-03-23T16:08:19;9.40;76.00
3416;DHT22;1721;51.238;9.562;2024-03-23T16:10:45;9.30;76.70
3416;DHT22;1721;51.238;9.562;2024-03-23T16:13:10;9.30;77.20
3416;DHT22;1721;51.238;9.562;2024-03-23T16:15:36;9.30;76.70
3416;DHT22;1721;51.238;9.562;2024-03-23T16:18:02;9.40;76.10
3416;DHT22;1721;51.238;9.562;2024-03-23T16:20:27;9.40;73.90
3416;DHT22;1721;51.238;9.562;2024-03-23T16:22:53;9.40;73.80
3416;DHT22;1721;51.238;9.562;2024-03-23T16:25:18;9.40;74.40
3416;DHT22;1721;51.238;9.562;2024-03-23T16:27:44;9.30;75.10
3416;DHT22;1721;51.238;9.562;2024-03-23T16:30:10;9.30;75.00
3416;DHT22;1721;51.238;9.562;2024-03-23T16:32:36;9.20;75.10
3416;DHT22;1721;51.238;9.562;2024-03-23T16:35:04;9.30;75.70
3416;DHT22;1721;51.238;9.562;2024-03-23T16:37:30;9.40;74.30
3416;DHT22;1721;51.238;9.562;2024-03-23T16:39:55;9.60;74.90
3416;DHT22;1721;51.238;9.562;2024-03-23T16:42:21;9.70;74.10
3416;DHT22;1721;51.238;9.562;2024-03-23T16:44:47;9.70;73.80
3416;DHT22;1721;51.238;9.562;2024-03-23T16:47:12;9.80;74.20
3416;DHT22;1721;51.238;9.562;2024-03-23T16:49:38;9.70;73.50
3416;DHT22;1721;51.238;9.562;2024-03-23T16:52:03;9.70;74.10
3416;DHT22;1721;51.238;9.562;2024-03-23T16:54:30;9.40;74.10
3416;DHT22;1721;51.238;9.562;2024-03-23T16:56:55;8.90;75.00
3416;DHT22;1721;51.238;9.562;2024-03-23T16:59:21;8.80;75.50
3416;DHT22;1721;51.238;9.562;2024-03-23T17:01:46;8.70;76.00
3416;DHT22;1721;51.238;9.562;2024-03-23T17:04:12;8.70;77.50
3416;DHT22;1721;51.238;9.562;2024-03-23T17:06:38;8.70;76.70
3416;DHT22;1721;51.238;9.562;2024-03-23T17:09:05;8.80;76.70
3416;DHT22;1721;51.238;9.562;2024-03-23T17:11:34;8.90;76.70
3416;DHT22;1721;51.238;9.562;2024-03-23T17:14:00;8.90;76.00
3416;DHT22;1721;51.238;9.562;2024-03-23T17:16:25;8.70;75.80
3416;DHT22;1721;51.238;9.562;2024-03-23T17:18:55;8.60;76.60